Time;durP1;ratioP1;P1;durP2;ratioP2;P2;SDS_P1;SDS_P2;PMS_P1;PMS_P2;Temp;Humidity;BMP_temperature;BMP_pressure;BME280_temperature;BME280_humidity;BME280_pressure;Samples;Min_cycle;Max_cycle;Signal;HPM_P1;HPM_P2
2021/12/17 00:00:57;;;;;;;38.13;35.83;;;;;;;19.84;45.33;103820.78;5011186;28;20405;-95
2021/12/17 00:03:35;;;;;;;39.15;36.72;;;;;;;19.84;45.51;103829.84;5009779;28;20033;-95
2021/12/17 00:06:47;;;;;;;37.42;35.03;;;;;;;19.84;45.14;103820.78;5021337;28;20044;-93
2021/12/17 00:08:52;;;;;;;36.58;34.38;;;;;;;19.83;45.47;103814.47;5003307;28;20046;-93
2021/12/17 00:11:21;;;;;;;37.72;35.03;;;;;;;19.83;45.25;103819.09;4998481;28;20104;-94
2021/12/17 00:13:47;;;;;;;38.38;35.70;;;;;;;19.83;45.19;103817.22;5015719;28;20076;-92
2021/12/17 00:16:20;;;;;;;38.60;35.75;;;;;;;19.83;45.49;103814.47;5045915;28;20034;-89
2021/12/17 00:19:05;;;;;;;41.78;38.95;;;;;;;19.84;45.21;103815.31;4996670;28;20209;-94
2021/12/17 00:48:47;;;;;;;40.67;37.88;;;;;;;19.78;45.26;103806.09;5018318;28;20085;-92
2021/12/17 00:53:43;;;;;;;39.35;36.80;;;;;;;19.77;44.99;103796.19;5007603;28;20042;-94
2021/12/17 00:56:09;;;;;;;38.80;36.15;;;;;;;19.77;45.38;103801.66;4997060;28;20192;-93
2021/12/17 00:58:34;;;;;;;39.15;36.55;;;;;;;19.77;44.98;103804.41;5009204;28;20099;-93
2021/12/17 01:01:00;;;;;;;37.75;35.45;;;;;;;19.77;44.87;103801.66;4989878;28;20073;-92
2021/12/17 01:03:25;;;;;;;38.83;36.22;;;;;;;19.77;45.29;103809.06;5013302;28;20041;-93
2021/12/17 01:05:50;;;;;;;38.10;35.70;;;;;;;19.76;44.79;103805.50;5013813;28;20189;-94
2021/12/17 01:08:16;;;;;;;37.13;34.92;;;;;;;19.76;44.92;103804.66;5031673;28;20100;-91
2021/12/17 01:10:50;;;;;;;38.03;35.53;;;;;;;19.76;44.79;103804.66;5014885;28;20568;-93
2021/12/17 01:13:15;;;;;;;38.95;36.38;;;;;;;19.76;45.00;103793.69;5050852;28;20010;-89
2021/12/17 01:15:42;;;;;;;39.05;36.33;;;;;;;19.75;45.00;103789.25;5064622;28;20030;-93
2021/12/17 01:18:13;;;;;;;37.40;35.15;;;;;;;19.74;45.07;103793.91;5032492;28;20267;-92
2021/12/17 01:36:18;;;;;;;36.97;34.58;;;;;;;19.71;44.77;103786.16;5017905;28;20111;-92
2021/12/17 01:44:08;;;;;;;37.67;35.47;;;;;;;19.70;44.79;103791.84;5005641;28;20172;-93
2021/12/17 01:46:35;;;;;;;37.92;35.60;;;;;;;19.69;44.58;103798.41;5029673;28;20041;-93
2021/12/17 01:55:48;;;;;;;36.25;34.05;;;;;;;19.68;44.65;103797.59;5005985;28;20048;-92
2021/12/17 01:59:56;;;;;;;38.75;36.25;;;;;;;19.66;44.66;103805.16;4994637;28;20092;-93
2021/12/17 02:02:22;;;;;;;36.85;34.75;;;;;;;19.65;44.54;103808.97;5011493;28;20061;-94
2021/12/17 02:04:47;;;;;;;37.83;35.63;;;;;;;19.64;44.48;103797.16;5012509;28;20451;-90
2021/12/17 02:07:13;;;;;;;36.92;34.78;;;;;;;19.65;44.78;103806.22;5014598;28;20072;-93
2021/12/17 02:20:28;;;;;;;38.15;35.85;;;;;;;19.62;44.79;103806.69;5020771;28;20108;-89
2021/12/17 02:28:45;;;;;;;36.28;34.28;;;;;;;19.61;44.43;103791.31;5001236;28;20161;-94
2021/12/17 02:31:27;;;;;;;36.65;34.45;;;;;;;19.59;44.84;103787.94;5001838;28;20499;-90
2021/12/17 02:34:02;;;;;;;37.92;35.38;;;;;;;19.59;44.54;103787.94;5011811;28;20030;-92
2021/12/17 02:36:31;;;;;;;36.70;34.60;;;;;;;19.58;44.48;103789.84;5007131;28;20125;-92
2021/12/17 02:39:39;;;;;;;37.80;35.50;;;;;;;19.59;44.50;103787.94;5009166;28;20042;-93
2021/12/17 02:47:12;;;;;;;37.20;34.90;;;;;;;19.57;44.39;103798.31;5004261;28;20106;-92
2021/12/17 02:49:42;;;;;;;35.47;33.35;;;;;;;19.56;44.78;103793.91;5027110;28;20038;-93
2021/12/17 02:52:08;;;;;;;36.55;34.42;;;;;;;19.55;44.58;103793.03;5005390;28;20026;-90
2021/12/17 02:54:35;;;;;;;36.30;34.20;;;;;;;19.54;44.75;103796.84;5014061;28;20037;-94
2021/12/17 02:57:01;;;;;;;36.40;34.17;;;;;;;19.54;44.47;103791.38;5003307;28;20041;-93
2021/12/17 02:59:26;;;;;;;35.60;33.53;;;;;;;19.54;44.67;103796.03;5000454;28;20061;-93
2021/12/17 03:01:54;;;;;;;37.22;34.95;;;;;;;19.53;44.41;103789.72;5022398;28;20037;-92
2021/12/17 03:04:20;;;;;;;36.78;34.58;;;;;;;19.52;44.37;103788.03;5010682;28;20030;-93
2021/12/17 03:06:46;;;;;;;37.78;35.42;;;;;;;19.54;44.44;103790.53;5010910;28;20030;-93
2021/12/17 03:09:12;;;;;;;37.40;35.03;;;;;;;19.53;44.48;103783.38;5027881;28;20042;-92
2021/12/17 03:11:38;;;;;;;37.25;34.95;;;;;;;19.53;44.13;103795.19;4993686;28;20471;-92
2021/12/17 03:14:03;;;;;;;36.22;34.13;;;;;;;19.52;44.31;103787.19;5012275;28;20034;-93
2021/12/17 03:16:35;;;;;;;35.92;33.63;;;;;;;19.51;44.78;103789.09;4993410;28;20053;-94
2021/12/17 03:19:23;;;;;;;36.72;34.53;;;;;;;19.51;44.71;103791.00;5003687;28;20045;-95
2021/12/17 03:24:32;;;;;;;36.80;34.63;;;;;;;19.49;44.62;103793.97;5015381;28;20049;-93
2021/12/17 03:26:57;;;;;;;37.97;35.67;;;;;;;19.49;44.57;103804.94;5008341;28;20038;-92
2021/12/17 03:29:23;;;;;;;37.65;35.38;;;;;;;19.48;44.44;103800.53;5005181;28;20134;-91
2021/12/17 03:31:48;;;;;;;37.40;35.25;;;;;;;19.48;44.60;103796.91;5008757;28;20038;-93
2021/12/17 03:34:18;;;;;;;36.50;34.47;;;;;;;19.47;44.20;103801.56;5003912;28;20030;-92
2021/12/17 03:36:47;;;;;;;35.90;33.90;;;;;;;19.46;44.43;103806.22;4992181;28;20034;-88
2021/12/17 03:39:13;;;;;;;36.92;34.83;;;;;;;19.46;44.45;103805.41;5003018;28;20133;-91
2021/12/17 03:41:40;;;;;;;34.63;32.63;;;;;;;19.46;44.58;103806.22;4993727;28;20131;-92
2021/12/17 03:44:08;;;;;;;35.50;33.38;;;;;;;19.45;44.52;103804.56;4997983;28;20034;-93
2021/12/17 03:46:33;;;;;;;35.42;33.22;;;;;;;19.45;44.44;103804.56;4987599;28;20129;-94
2021/12/17 03:49:00;;;;;;;38.28;35.97;;;;;;;19.45;44.78;103806.44;4996936;28;20447;-94
2021/12/17 03:51:26;;;;;;;35.83;33.78;;;;;;;19.45;44.52;103811.94;5001772;28;20699;-94
2021/12/17 03:53:55;;;;;;;36.00;33.90;;;;;;;19.44;44.52;103807.53;4999683;28;20038;-94
2021/12/17 03:56:21;;;;;;;35.50;33.33;;;;;;;19.44;44.84;103818.50;5003766;28;20034;-92
2021/12/17 03:58:49;;;;;;;36.42;34.30;;;;;;;19.44;44.51;103810.25;5029417;28;20129;-92
2021/12/17 04:01:15;;;;;;;35.25;33.28;;;;;;;19.43;44.47;103811.34;5009453;28;20096;-93
2021/12/17 04:03:41;;;;;;;35.00;32.92;;;;;;;19.43;44.76;103816.81;5015289;28;20036;-92
2021/12/17 04:06:06;;;;;;;35.40;33.10;;;;;;;19.43;44.63;103814.91;4997199;28;20498;-93
2021/12/17 04:08:32;;;;;;;35.88;33.80;;;;;;;19.42;44.37;103818.69;4996326;28;20399;-93
2021/12/17 04:11:04;;;;;;;36.90;34.65;;;;;;;19.41;44.70;103811.56;5024928;28;20102;-92
2021/12/17 04:13:34;;;;;;;36.83;34.72;;;;;;;19.41;44.51;103814.31;5038981;28;20101;-89
2021/12/17 04:16:06;;;;;;;36.58;34.42;;;;;;;19.41;44.79;103806.06;5032175;28;20508;-86
2021/12/17 04:18:33;;;;;;;35.72;33.72;;;;;;;19.41;44.72;103816.22;5029089;28;20041;-92
2021/12/17 04:21:00;;;;;;;35.85;33.75;;;;;;;19.41;44.83;103811.56;5033610;28;20041;-93
2021/12/17 04:23:27;;;;;;;34.72;32.72;;;;;;;19.40;44.59;103806.28;5006531;28;20526;-93
2021/12/17 04:25:52;;;;;;;36.55;34.45;;;;;;;19.40;45.07;103803.56;5022847;28;20038;-94
2021/12/17 04:28:19;;;;;;;35.75;33.75;;;;;;;19.40;44.86;103795.31;5021350;28;20085;-93
2021/12/17 04:30:45;;;;;;;34.65;32.75;;;;;;;19.39;44.89;103794.50;5029600;28;20042;-92
2021/12/17 04:33:12;;;;;;;35.00;33.00;;;;;;;19.39;44.78;103802.72;5021536;28;20077;-91
2021/12/17 04:35:39;;;;;;;34.85;32.75;;;;;;;19.39;44.59;103797.22;5009331;28;20038;-92
2021/12/17 04:38:06;;;;;;;36.55;34.45;;;;;;;19.39;44.71;103790.91;5015379;28;20088;-92
2021/12/17 04:40:32;;;;;;;36.03;33.92;;;;;;;19.38;44.89;103800.22;5033867;28;20045;-94
2021/12/17 04:43:16;;;;;;;37.28;35.28;;;;;;;19.37;44.88;103799.34;5030095;28;20525;-92
2021/12/17 04:45:50;;;;;;;34.95;32.95;;;;;;;19.37;45.02;103798.53;4993091;28;20109;-92
2021/12/17 04:59:12;;;;;;;35.38;33.47;;;;;;;19.34;44.63;103802.56;4994078;28;20053;-93
2021/12/17 05:01:37;;;;;;;35.15;33.25;;;;;;;19.34;44.62;103807.22;5028990;28;20030;-92
2021/12/17 05:04:03;;;;;;;35.72;33.75;;;;;;;19.33;45.11;103803.63;4978781;28;20397;-93
2021/12/17 05:06:30;;;;;;;35.10;33.20;;;;;;;19.34;45.05;103807.22;5011592;28;20053;-94
2021/12/17 05:09:01;;;;;;;34.90;32.90;;;;;;;19.33;44.94;103806.38;5010437;28;20034;-93
2021/12/17 05:18:13;;;;;;;35.05;33.05;;;;;;;19.34;45.25;103809.97;5013596;28;20145;-93
2021/12/17 05:19:50;;;;;;;35.00;32.85;;;;;;;19.31;44.70;103797.53;5014275;28;20088;-93
2021/12/17 05:22:17;;;;;;;35.47;33.58;;;;;;;19.32;45.06;103804.69;5013765;28;20026;-92
2021/12/17 05:24:43;;;;;;;34.42;32.63;;;;;;;19.32;44.95;103801.13;5029656;28;20056;-91
2021/12/17 05:27:08;;;;;;;35.60;33.50;;;;;;;19.31;45.18;103804.94;4998806;28;20030;-93
2021/12/17 05:29:34;;;;;;;33.92;32.03;;;;;;;19.31;45.19;103814.00;5012801;28;20034;-92
2021/12/17 05:31:59;;;;;;;34.80;32.70;;;;;;;19.30;45.31;103805.97;5013069;28;20448;-92
2021/12/17 05:34:24;;;;;;;34.15;31.65;;;;;;;19.30;45.24;103808.72;5013600;28;20034;-92
2021/12/17 05:36:50;;;;;;;33.65;31.83;;;;;;;19.30;45.14;103817.78;5015409;28;20069;-91
2021/12/17 05:39:15;;;;;;;34.38;32.47;;;;;;;19.29;45.26;103810.63;4983599;28;20038;-92
2021/12/17 05:41:41;;;;;;;33.88;32.08;;;;;;;19.29;45.18;103802.41;5011070;28;20037;-91
2021/12/17 05:44:06;;;;;;;34.28;32.38;;;;;;;19.30;45.10;103808.72;4991350;28;20061;-91
2021/12/17 05:46:49;;;;;;;34.55;32.65;;;;;;;19.30;45.14;103805.97;5009196;28;20054;-92
2021/12/17 05:49:19;;;;;;;34.63;32.58;;;;;;;19.29;45.08;103807.06;4996250;28;20306;-91
2021/12/17 05:51:45;;;;;;;34.03;32.22;;;;;;;19.29;45.10;103816.13;5013377;28;20046;-90
2021/12/17 05:54:10;;;;;;;35.00;33.05;;;;;;;19.28;45.09;103814.44;5014089;28;20109;-94
2021/12/17 05:56:37;;;;;;;34.03;32.13;;;;;;;19.28;45.25;103813.59;5002860;28;20539;-91
2021/12/17 05:59:02;;;;;;;35.05;32.92;;;;;;;19.29;45.05;103823.50;4993381;28;20117;-91
2021/12/17 06:01:28;;;;;;;33.70;31.80;;;;;;;19.28;45.15;103827.28;5021089;28;20331;-92
2021/12/17 06:03:53;;;;;;;33.65;31.85;;;;;;;19.28;45.22;103828.16;5000898;28;20462;-87
2021/12/17 06:06:31;;;;;;;34.55;32.65;;;;;;;19.27;45.02;103817.41;5011580;28;20156;-94
2021/12/17 06:08:57;;;;;;;34.63;32.73;;;;;;;19.27;44.99;103820.97;5001479;28;20471;-92
2021/12/17 06:11:22;;;;;;;34.00;32.10;;;;;;;19.27;45.13;103815.50;5012293;28;20108;-93
2021/12/17 06:13:48;;;;;;;33.60;31.70;;;;;;;19.27;45.12;103831.09;5014683;28;20034;-92
2021/12/17 06:16:13;;;;;;;35.88;33.88;;;;;;;19.27;45.16;103820.16;5023465;28;20046;-92
2021/12/17 06:18:38;;;;;;;34.85;32.70;;;;;;;19.27;44.99;103822.88;5029097;28;20038;-93
2021/12/17 06:21:04;;;;;;;35.60;33.53;;;;;;;19.27;45.27;103817.41;5028365;28;20486;-92
2021/12/17 06:23:29;;;;;;;33.58;31.67;;;;;;;19.26;45.15;103824.78;4989972;28;20099;-93
2021/12/17 06:25:54;;;;;;;35.17;33.22;;;;;;;19.24;44.84;103827.75;4997125;28;20045;-86
2021/12/17 06:28:20;;;;;;;34.58;32.67;;;;;;;19.26;45.17;103829.44;5005587;28;20064;-94
2021/12/17 06:30:45;;;;;;;33.70;31.90;;;;;;;19.25;45.26;103834.06;5012872;28;20041;-94
2021/12/17 06:33:11;;;;;;;35.35;33.35;;;;;;;19.26;45.06;103837.66;5011322;28;20038;-94
2021/12/17 06:35:36;;;;;;;35.00;33.10;;;;;;;19.24;45.34;103848.84;5034932;28;20042;-92
2021/12/17 06:38:04;;;;;;;35.45;33.47;;;;;;;19.24;45.25;103840.63;5011264;28;20462;-92
2021/12/17 06:40:29;;;;;;;34.63;32.70;;;;;;;19.24;45.04;103841.44;5003266;28;20129;-91
2021/12/17 06:42:55;;;;;;;34.22;32.33;;;;;;;19.23;45.41;103839.78;5010019;28;20201;-93
2021/12/17 06:45:36;;;;;;;35.08;32.97;;;;;;;19.23;45.44;103844.44;5012333;28;20038;-92
2021/12/17 06:48:01;;;;;;;33.95;32.00;;;;;;;19.23;45.18;103852.66;5027192;28;20048;-92
2021/12/17 06:58:54;;;;;;;33.90;32.00;;;;;;;19.21;45.28;103852.03;4994375;28;20137;-92
2021/12/17 07:17:16;;;;;;;34.03;32.13;;;;;;;19.19;45.33;103843.19;5032604;28;20045;-85
2021/12/17 07:40:04;;;;;;;35.55;33.35;;;;;;;19.16;45.17;103855.44;5000293;28;20046;-84
2021/12/17 07:42:30;;;;;;;34.03;32.08;;;;;;;19.16;45.08;103849.97;4995551;28;20509;-93
2021/12/17 07:44:56;;;;;;;34.63;32.58;;;;;;;19.16;45.63;103860.94;5015009;28;20034;-91
2021/12/17 07:47:22;;;;;;;34.63;32.60;;;;;;;19.16;45.42;103851.88;4996227;28;20026;-92
2021/12/17 07:49:48;;;;;;;33.05;31.20;;;;;;;19.15;45.50;103851.03;4997130;28;20066;-93
2021/12/17 07:52:13;;;;;;;35.00;32.90;;;;;;;19.16;45.21;103843.66;5011522;28;20062;-93
2021/12/17 07:54:39;;;;;;;34.25;32.25;;;;;;;19.15;45.22;103845.56;5014171;28;20596;-92
2021/12/17 07:57:04;;;;;;;34.20;32.30;;;;;;;19.16;45.25;103840.91;5047433;28;20398;-88
2021/12/17 07:59:30;;;;;;;34.20;32.33;;;;;;;19.16;45.19;103838.19;5030989;28;20045;-93
2021/12/17 08:01:55;;;;;;;34.05;32.15;;;;;;;19.15;45.42;103842.81;5029978;28;20038;-92
2021/12/17 08:04:22;;;;;;;36.08;33.95;;;;;;;19.15;45.49;103842.81;4998093;28;20034;-93
2021/12/17 08:06:47;;;;;;;34.83;32.50;;;;;;;19.15;45.28;103841.97;5030213;28;20130;-93
2021/12/17 08:09:13;;;;;;;35.80;33.78;;;;;;;19.16;45.52;103840.91;5030438;28;20072;-93
2021/12/17 08:11:39;;;;;;;34.63;32.72;;;;;;;19.15;45.48;103834.59;5030181;28;20054;-93
2021/12/17 08:14:13;;;;;;;34.28;32.38;;;;;;;19.14;45.65;103832.91;5003987;28;20037;-84
2021/12/17 08:16:54;;;;;;;33.78;31.88;;;;;;;19.14;45.65;103840.28;5007559;28;20038;-94
2021/12/17 08:25:11;;;;;;;35.65;33.65;;;;;;;19.14;45.63;103843.03;4995951;28;20057;-93
2021/12/17 08:32:34;;;;;;;33.85;31.85;;;;;;;19.12;45.67;103845.16;5015111;28;20053;-95
2021/12/17 08:35:00;;;;;;;35.20;33.20;;;;;;;19.12;45.57;103858.84;4997812;28;20030;-94
2021/12/17 08:37:28;;;;;;;35.80;33.63;;;;;;;19.12;45.36;103859.69;5052040;28;20068;-94
2021/12/17 08:39:53;;;;;;;34.83;32.83;;;;;;;19.12;45.81;103870.66;5006936;28;20102;-94
2021/12/17 08:42:19;;;;;;;35.47;33.47;;;;;;;19.13;45.63;103871.50;5052598;28;20046;-94
2021/12/17 08:44:44;;;;;;;35.95;33.75;;;;;;;19.12;45.70;103869.81;5013529;28;20094;-95
2021/12/17 08:47:10;;;;;;;34.60;32.72;;;;;;;19.11;45.90;103879.94;4997770;28;20038;-95
2021/12/17 08:49:39;;;;;;;33.72;31.83;;;;;;;19.11;45.94;103874.47;4998001;28;20038;-94
2021/12/17 08:52:05;;;;;;;34.05;32.17;;;;;;;19.11;46.09;103877.22;5029115;28;20033;-93
2021/12/17 08:54:31;;;;;;;34.58;32.58;;;;;;;19.12;46.08;103876.13;5013209;28;20394;-91
2021/12/17 08:56:56;;;;;;;34.50;32.60;;;;;;;19.12;45.75;103867.06;5041222;28;20039;-87
2021/12/17 08:59:22;;;;;;;34.90;32.80;;;;;;;19.12;45.94;103861.59;5029046;28;20050;-92
2021/12/17 09:01:47;;;;;;;35.22;33.22;;;;;;;19.12;46.13;103864.34;5012761;28;20556;-89
2021/12/17 09:04:13;;;;;;;36.42;33.72;;;;;;;19.11;46.35;103868.16;5015963;28;20030;-95
2021/12/17 09:06:39;;;;;;;154.80;62.35;;;;;;;19.12;46.82;103867.91;5014053;28;20045;-87
2021/12/17 09:09:05;;;;;;;74.55;37.63;;;;;;;19.12;47.17;103865.16;5012508;28;20475;-86
2021/12/17 09:11:31;;;;;;;57.45;37.30;;;;;;;19.13;47.60;103875.09;5010604;28;20046;-93
2021/12/17 09:13:59;;;;;;;46.15;37.03;;;;;;;19.13;47.73;103866.03;5005785;28;20128;-94
2021/12/17 09:16:25;;;;;;;;;;;;;;;19.11;47.87;103874.47;4995162;28;20066;-85
2021/12/17 09:18:52;;;;;;;37.25;33.60;;;;;;;19.12;47.71;103878.03;5022544;28;19960;-91
2021/12/17 09:21:18;;;;;;;38.70;34.88;;;;;;;19.12;47.80;103876.13;4996541;28;20041;-92
2021/12/17 09:23:44;;;;;;;37.92;34.42;;;;;;;19.12;47.37;103878.03;5014933;28;20034;-90
2021/12/17 09:26:10;;;;;;;36.42;32.97;;;;;;;19.12;47.10;103875.28;5007849;28;20482;-91
2021/12/17 09:28:36;;;;;;;36.90;33.50;;;;;;;19.12;46.95;103878.88;5027402;28;20046;-88
2021/12/17 09:31:02;;;;;;;38.25;34.22;;;;;;;19.12;46.70;103880.78;5013243;28;20099;-88
2021/12/17 09:33:27;;;;;;;38.55;35.05;;;;;;;19.14;46.58;103886.88;5026417;28;20041;-89
2021/12/17 09:35:53;;;;;;;36.15;33.10;;;;;;;19.14;46.76;103892.34;5029414;28;20037;-86
2021/12/17 09:38:18;;;;;;;36.58;33.55;;;;;;;19.15;46.86;103900.38;5002126;28;20483;-86
2021/12/17 09:40:44;;;;;;;36.05;33.35;;;;;;;19.16;46.79;103906.69;5023290;28;20091;-87
2021/12/17 09:43:11;;;;;;;34.95;32.40;;;;;;;19.17;46.93;103906.44;5010271;28;20038;-87
2021/12/17 09:45:37;;;;;;;35.90;33.10;;;;;;;19.19;46.79;103914.44;4993080;28;20069;-87
2021/12/17 09:48:03;;;;;;;35.55;33.08;;;;;;;19.20;46.66;103916.13;4994433;28;20467;-88
2021/12/17 09:50:29;;;;;;;36.22;33.65;;;;;;;19.22;46.87;103916.72;4987693;28;20092;-87
2021/12/17 09:52:55;;;;;;;34.50;32.22;;;;;;;19.23;46.97;103918.44;5009122;28;20077;-88
2021/12/17 09:55:20;;;;;;;36.47;34.20;;;;;;;19.23;46.88;103922.00;5009640;28;20038;-87
2021/12/17 09:57:46;;;;;;;35.55;32.80;;;;;;;19.25;46.88;103919.03;5008828;28;20029;-86
2021/12/17 10:00:20;;;;;;;35.10;32.78;;;;;;;19.27;47.39;103919.63;4997742;28;20034;-90
2021/12/17 10:02:48;;;;;;;33.97;31.88;;;;;;;19.29;47.46;103922.16;5000684;28;20038;-86
2021/12/17 10:05:26;;;;;;;34.35;32.05;;;;;;;19.29;47.38;103923.00;5005866;28;20029;-90
2021/12/17 10:08:01;;;;;;;34.25;32.00;;;;;;;19.30;47.24;103927.41;5013774;28;20508;-87
2021/12/17 10:11:00;;;;;;;36.03;33.63;;;;;;;19.33;47.24;103931.63;5040199;28;20041;-92
2021/12/17 10:13:33;;;;;;;36.70;34.03;;;;;;;19.33;47.20;103921.50;5015142;28;20498;-90
2021/12/17 10:16:01;;;;;;;34.92;32.72;;;;;;;19.34;47.53;103928.66;5001045;28;20034;-87
2021/12/17 10:18:37;;;;;;;34.85;32.63;;;;;;;19.36;47.49;103932.00;5012563;28;20022;-83
2021/12/17 10:21:24;;;;;;;35.75;33.55;;;;;;;19.37;47.39;103933.69;5002184;28;20493;-86
2021/12/17 10:23:51;;;;;;;34.38;32.28;;;;;;;19.39;47.20;103930.72;5014252;28;20041;-85
2021/12/17 10:26:20;;;;;;;34.40;32.28;;;;;;;19.40;47.18;103929.66;5017629;28;20086;-82
2021/12/17 10:28:52;;;;;;;34.78;31.83;;;;;;;19.42;47.39;103927.53;5024051;28;20444;-85
2021/12/17 10:31:17;;;;;;;33.67;31.65;;;;;;;19.42;47.60;103928.34;5011979;28;20125;-86
2021/12/17 10:33:49;;;;;;;33.85;31.75;;;;;;;19.44;48.00;103922.66;5013106;28;20497;-88
2021/12/17 10:36:14;;;;;;;34.47;32.33;;;;;;;19.44;47.70;103925.41;5008866;28;20037;-88
2021/12/17 10:38:43;;;;;;;34.85;32.50;;;;;;;19.46;47.96;103928.75;5009432;28;20034;-88
2021/12/17 10:41:13;;;;;;;34.03;31.90;;;;;;;19.46;47.73;103926.84;5008322;28;20034;-91
2021/12/17 10:43:45;;;;;;;34.85;32.63;;;;;;;19.48;47.49;103928.53;4999071;28;20052;-88
2021/12/17 10:46:27;;;;;;;35.85;33.70;;;;;;;19.49;47.53;103922.00;5001327;28;20038;-88
2021/12/17 10:49:00;;;;;;;34.72;32.50;;;;;;;19.50;47.31;103932.72;5015514;28;20478;-86
2021/12/17 10:51:32;;;;;;;35.08;32.78;;;;;;;19.52;47.85;103932.50;5001757;28;20038;-89
2021/12/17 10:54:06;;;;;;;35.65;32.90;;;;;;;19.51;47.72;103928.94;5011433;28;20121;-93
2021/12/17 10:56:35;;;;;;;36.05;33.70;;;;;;;19.53;47.60;103929.53;5005937;28;20081;-85
2021/12/17 10:59:09;;;;;;;33.80;31.33;;;;;;;19.54;47.75;103930.38;5013018;28;20045;-91
2021/12/17 11:01:45;;;;;;;35.65;32.55;;;;;;;19.54;47.50;103936.69;5007919;28;20034;-94
2021/12/17 11:04:25;;;;;;;35.05;32.85;;;;;;;19.56;47.75;103933.75;5006014;28;20474;-91
2021/12/17 11:07:01;;;;;;;35.33;32.78;;;;;;;19.56;47.87;103931.00;5012684;28;20030;-89
2021/12/17 11:09:47;;;;;;;36.90;34.65;;;;;;;19.56;47.63;103926.34;5014029;28;20053;-93
2021/12/17 11:12:36;;;;;;;35.97;33.28;;;;;;;19.58;47.75;103928.84;5006532;28;20054;-92
2021/12/17 11:15:07;;;;;;;;;;;;;;;19.56;47.51;103931.00;5013092;28;20033;-87
2021/12/17 11:17:33;;;;;;;36.10;33.60;;;;;;;19.56;47.33;103923.59;5026958;28;19924;-89
2021/12/17 11:20:03;;;;;;;34.28;32.00;;;;;;;19.57;47.46;103928.00;5012265;28;20079;-86
2021/12/17 11:22:30;;;;;;;35.35;33.03;;;;;;;19.57;47.17;103930.75;5003235;28;20122;-89
2021/12/17 11:24:58;;;;;;;37.45;34.63;;;;;;;19.60;47.33;103926.72;5009163;28;20052;-90
2021/12/17 11:27:23;;;;;;;35.10;32.75;;;;;;;19.59;47.03;103923.16;5020960;28;20061;-86
2021/12/17 11:29:49;;;;;;;35.30;33.03;;;;;;;19.62;47.31;103924.59;4990740;28;20033;-92
2021/12/17 11:32:18;;;;;;;35.80;33.50;;;;;;;19.62;47.06;103916.38;5026428;28;20063;-87
2021/12/17 11:34:44;;;;;;;36.40;33.55;;;;;;;19.63;47.43;103915.28;4994708;28;20050;-85
2021/12/17 11:37:10;;;;;;;34.55;32.35;;;;;;;19.64;47.44;103915.06;5011311;28;20026;-95
2021/12/17 11:39:50;;;;;;;36.92;34.33;;;;;;;19.65;47.05;103911.28;5011934;28;20038;-94
2021/12/17 11:42:29;;;;;;;36.80;34.15;;;;;;;19.66;47.03;103901.16;5047960;28;20041;-91
2021/12/17 11:47:46;;;;;;;35.55;33.28;;;;;;;19.68;47.48;103893.56;5014088;28;20084;-96
2021/12/17 11:50:14;;;;;;;35.53;33.13;;;;;;;19.69;47.08;103897.97;5006761;28;20038;-94
2021/12/17 11:52:46;;;;;;;37.20;34.65;;;;;;;19.71;47.15;103889.53;5014958;28;20045;-89
2021/12/17 11:55:35;;;;;;;36.88;34.30;;;;;;;19.71;46.98;103889.53;5005792;28;20454;-96
2021/12/17 11:58:10;;;;;;;34.95;32.35;;;;;;;19.70;46.89;103891.41;5007408;28;20121;-87
2021/12/17 12:00:41;;;;;;;37.10;34.70;;;;;;;19.71;47.13;103893.09;4999385;28;20034;-88
2021/12/17 12:03:20;;;;;;;35.35;33.20;;;;;;;19.73;47.15;103884.63;5005174;28;20129;-89
2021/12/17 12:05:59;;;;;;;35.65;33.33;;;;;;;19.72;46.96;103880.22;5008229;28;20066;-95
2021/12/17 12:08:50;;;;;;;34.63;32.50;;;;;;;19.73;47.04;103870.91;5034628;28;20080;-85
2021/12/17 12:11:26;;;;;;;35.30;32.95;;;;;;;19.74;46.88;103878.09;4995891;28;20035;-90
2021/12/17 12:13:56;;;;;;;36.38;33.95;;;;;;;19.74;46.71;103878.09;4998341;28;20038;-91
2021/12/17 12:16:25;;;;;;;35.25;33.13;;;;;;;19.75;47.02;103886.09;4997151;28;20033;-85
2021/12/17 12:19:07;;;;;;;34.25;31.98;;;;;;;19.75;46.58;103883.34;5006176;28;20041;-89
2021/12/17 12:21:36;;;;;;;35.65;33.00;;;;;;;19.75;46.92;103886.09;5027184;28;20033;-96
2021/12/17 12:24:11;;;;;;;35.13;32.97;;;;;;;19.77;46.63;103885.88;5022988;28;20108;-96
2021/12/17 12:26:49;;;;;;;37.38;34.92;;;;;;;19.76;46.92;103889.69;5013656;28;20102;-96
2021/12/17 12:29:16;;;;;;;35.22;32.92;;;;;;;19.77;46.58;103889.44;5009649;28;20100;-91
2021/12/17 12:31:56;;;;;;;36.20;33.70;;;;;;;19.77;46.32;103880.38;5004921;28;20098;-96
2021/12/17 12:34:29;;;;;;;35.85;33.65;;;;;;;19.77;46.30;103883.94;5025775;28;20061;-96
2021/12/17 12:37:06;;;;;;;36.45;34.30;;;;;;;19.79;46.31;103889.22;5021398;28;20030;-96
2021/12/17 12:39:42;;;;;;;36.20;33.92;;;;;;;19.79;46.07;103883.75;5025696;28;20021;-96
2021/12/17 12:42:26;;;;;;;35.33;33.03;;;;;;;19.78;45.92;103885.66;5314779;23;20056;-94
2021/12/17 12:45:08;;;;;;;34.20;32.10;;;;;;;19.78;46.09;103882.91;5067733;28;20037;-96
2021/12/17 12:47:47;;;;;;;38.00;35.60;;;;;;;19.79;45.84;103878.25;5130378;23;20053;-95
2021/12/17 12:50:16;;;;;;;35.45;33.25;;;;;;;19.79;45.67;103878.25;5054804;28;20032;-91
2021/12/17 12:52:50;;;;;;;34.85;32.70;;;;;;;19.80;45.82;103877.16;5063224;28;20047;-93
2021/12/17 12:55:17;;;;;;;35.88;33.10;;;;;;;19.80;45.89;103871.69;5052622;28;20057;-96
2021/12/17 12:57:44;;;;;;;35.47;33.22;;;;;;;19.80;45.82;103869.78;5052632;28;20037;-96
2021/12/17 13:00:20;;;;;;;35.92;33.75;;;;;;;19.81;45.43;103868.72;5050396;28;20045;-96
2021/12/17 13:02:50;;;;;;;35.97;33.88;;;;;;;19.81;45.38;103871.47;5034806;28;20037;-93
2021/12/17 13:05:16;;;;;;;35.95;33.70;;;;;;;19.81;45.49;103884.34;5035167;28;20478;-88
2021/12/17 13:07:44;;;;;;;35.78;33.67;;;;;;;19.82;45.23;103873.13;5051636;28;20044;-93
2021/12/17 13:10:10;;;;;;;35.60;33.50;;;;;;;19.82;45.23;103866.81;5054747;28;20033;-96
2021/12/17 13:12:37;;;;;;;36.13;34.03;;;;;;;19.83;45.43;103873.97;5059515;28;20044;-93
2021/12/17 13:15:38;;;;;;;34.65;32.65;;;;;;;19.84;45.39;103870.19;5063549;28;20089;-93
2021/12/17 13:26:11;;;;;;;35.13;33.10;;;;;;;19.83;44.97;103863.84;5115966;23;20061;-96
2021/12/17 13:29:06;;;;;;;37.03;34.97;;;;;;;19.83;45.06;103863.84;5027596;28;20091;-88
2021/12/17 13:31:40;;;;;;;36.15;34.05;;;;;;;19.83;44.81;103863.00;5031823;28;20037;-84
2021/12/17 13:34:12;;;;;;;35.05;32.95;;;;;;;19.83;45.01;103858.38;5029732;28;20025;-87
2021/12/17 13:36:49;;;;;;;36.08;33.90;;;;;;;19.84;44.83;103862.78;5033468;28;20025;-96
2021/12/17 13:39:14;;;;;;;35.33;33.33;;;;;;;19.84;44.61;103865.53;5036769;28;20036;-96
2021/12/17 13:41:42;;;;;;;34.80;32.67;;;;;;;19.84;44.95;103862.78;5041581;28;20026;-96
2021/12/17 13:44:27;;;;;;;32.92;30.77;;;;;;;19.85;44.46;103866.34;5036978;28;20072;-96
2021/12/17 13:47:05;;;;;;;35.28;33.20;;;;;;;19.83;44.57;103863.84;5037848;28;20038;-92
2021/12/17 13:49:31;;;;;;;34.37;32.40;;;;;;;19.84;44.79;103872.91;5049584;28;20022;-96
2021/12/17 13:51:56;;;;;;;34.92;32.90;;;;;;;19.83;44.49;103866.59;5050538;28;20323;-90
2021/12/17 13:54:22;;;;;;;35.30;33.30;;;;;;;19.85;44.55;103869.09;5032679;28;20051;-96
2021/12/17 13:57:02;;;;;;;42.35;39.65;;;;;;;19.84;44.49;103868.25;5475318;23;20009;-96
2021/12/17 13:59:29;;;;;;;36.83;34.83;;;;;;;19.85;44.08;103869.09;5065179;28;20037;-96
2021/12/17 14:01:55;;;;;;;35.88;33.90;;;;;;;19.85;44.19;103871.84;5060035;28;20048;-91
2021/12/17 14:04:21;;;;;;;34.65;32.80;;;;;;;19.84;44.54;103873.75;5054819;28;20385;-89
2021/12/17 14:06:52;;;;;;;34.53;32.22;;;;;;;19.85;44.10;103871.84;5055530;28;20036;-96